Terminal Aerodrome Forecast
Issued by NWS

Current Version | Previous Version | Graphics & Text | Print | Product List | Glossary On
Versions: 1 2 3 4 5 6 7 8 9 10 11 12 13 14 15 16 17 18 19 20 21 22 23 24 25 26
000
FTUS41 KRLX 180800 AAB
TAFCKB
TAF AMD
KCKB 180826Z 1808/1906 00000KT 1/4SM FG VV001
     FM181300 00000KT 4SM BR SCT003
     FM181400 00000KT P6SM FEW015
     FM181500 00000KT P6SM SCT250
     FM182100 36006KT P6SM SCT250
     FM190400 06005KT P6SM FEW150=

USA.gov is the U.S. government's official web portal to all federal, state and local government web resources and services.